Time;durP1;ratioP1;P1;durP2;ratioP2;P2;SDS_P1;SDS_P2;PMS_P1;PMS_P2;Temp;Humidity;BMP_temperature;BMP_pressure;BME280_temperature;BME280_humidity;BME280_pressure;Samples;Min_cycle;Max_cycle;Signal;HPM_P1;HPM_P2
2023/03/02 00:01:48;;;;;;;29.77;15.00;;;4.90;99.90;;;;;;6182653;23;20013;-86
2023/03/02 00:04:23;;;;;;;32.08;17.25;;;4.90;99.90;;;;;;6182139;23;20005;-87
2023/03/02 00:06:54;;;;;;;30.33;17.35;;;4.80;99.90;;;;;;6182966;23;20019;-86
2023/03/02 00:09:19;;;;;;;32.10;16.90;;;4.80;99.90;;;;;;6183116;23;20551;-87
2023/03/02 00:11:45;;;;;;;30.00;15.98;;;4.80;99.90;;;;;;6133352;23;20048;-87
2023/03/02 00:14:10;;;;;;;30.92;16.75;;;4.80;99.90;;;;;;6158199;23;20483;-87
2023/03/02 00:16:36;;;;;;;32.55;17.40;;;4.80;99.90;;;;;;6133112;23;20013;-87
2023/03/02 00:19:02;;;;;;;30.58;16.35;;;4.80;99.90;;;;;;6158178;23;20009;-87
2023/03/02 00:21:27;;;;;;;30.48;16.98;;;4.70;99.90;;;;;;6157924;23;20009;-87
2023/03/02 00:23:53;;;;;;;31.17;17.77;;;4.70;99.90;;;;;;6157243;23;20088;-87
2023/03/02 00:26:19;;;;;;;30.23;16.58;;;4.70;99.90;;;;;;6158113;23;20013;-87
2023/03/02 00:28:44;;;;;;;32.95;17.52;;;4.60;99.90;;;;;;6133739;23;20405;-87
2023/03/02 00:31:10;;;;;;;30.02;15.95;;;4.60;99.90;;;;;;6157664;23;20009;-87
2023/03/02 00:33:36;;;;;;;34.85;17.63;;;4.60;99.90;;;;;;6133583;23;20373;-87
2023/03/02 00:36:02;;;;;;;34.40;17.60;;;4.60;99.90;;;;;;6133044;23;20013;-87
2023/03/02 00:38:28;;;;;;;34.92;18.20;;;4.60;99.90;;;;;;6157970;23;20088;-87
2023/03/02 00:40:55;;;;;;;33.78;16.88;;;4.60;99.90;;;;;;6132915;23;20095;-87
2023/03/02 00:43:26;;;;;;;35.85;19.83;;;4.60;99.90;;;;;;6182003;23;20017;-87
2023/03/02 00:45:52;;;;;;;33.40;18.48;;;4.60;99.90;;;;;;6157548;23;20005;-87
2023/03/02 00:48:17;;;;;;;33.45;19.70;;;4.60;99.90;;;;;;6182799;23;20345;-87
2023/03/02 00:50:43;;;;;;;33.35;18.73;;;4.60;99.90;;;;;;6133117;23;20017;-87
2023/03/02 00:53:09;;;;;;;33.55;18.00;;;4.60;99.90;;;;;;6132814;23;20449;-87
2023/03/02 00:55:36;;;;;;;34.97;18.30;;;4.60;99.90;;;;;;6133054;23;20013;-87
2023/03/02 00:58:02;;;;;;;33.60;18.65;;;4.60;99.90;;;;;;6182670;23;20013;-87
2023/03/02 01:00:28;;;;;;;36.85;19.52;;;4.60;99.90;;;;;;6181905;23;20013;-87
2023/03/02 01:02:54;;;;;;;38.28;20.92;;;4.60;99.90;;;;;;6157174;23;20029;-87
2023/03/02 01:05:20;;;;;;;33.97;19.90;;;4.60;99.90;;;;;;6157440;23;20040;-87
2023/03/02 01:07:46;;;;;;;37.80;20.27;;;4.60;99.90;;;;;;6158153;23;20009;-87
2023/03/02 01:10:12;;;;;;;40.40;21.60;;;4.60;99.90;;;;;;6133525;23;20073;-87
2023/03/02 01:12:38;;;;;;;36.28;19.75;;;4.60;99.90;;;;;;6133026;23;20019;-87
2023/03/02 01:15:04;;;;;;;37.03;20.48;;;4.60;99.90;;;;;;6133115;23;20013;-87
2023/03/02 01:17:29;;;;;;;40.78;20.55;;;4.60;99.90;;;;;;6182786;23;20060;-85
2023/03/02 01:19:55;;;;;;;36.88;20.10;;;4.50;99.90;;;;;;6160171;23;20017;-87
2023/03/02 01:22:22;;;;;;;32.58;19.08;;;4.50;99.90;;;;;;6159237;23;20017;-87
2023/03/02 01:24:48;;;;;;;36.05;18.58;;;4.50;99.90;;;;;;6157904;23;20013;-87
2023/03/02 01:27:14;;;;;;;40.60;21.40;;;4.50;99.90;;;;;;6207762;23;20036;-87
2023/03/02 01:29:40;;;;;;;37.00;21.05;;;4.50;99.90;;;;;;6183685;23;20457;-87
2023/03/02 01:32:05;;;;;;;32.70;18.83;;;4.50;99.90;;;;;;6158030;23;20068;-87
2023/03/02 01:34:31;;;;;;;33.85;18.80;;;4.50;99.90;;;;;;6132991;23;20005;-87
2023/03/02 01:36:57;;;;;;;35.95;19.20;;;4.40;99.90;;;;;;6156843;23;20017;-87
2023/03/02 01:39:22;;;;;;;35.47;20.55;;;4.40;99.90;;;;;;6157223;23;20508;-87
2023/03/02 01:41:50;;;;;;;34.53;18.13;;;4.40;99.90;;;;;;6132155;23;20016;-87
2023/03/02 01:44:41;;;;;;;37.97;18.67;;;4.40;99.90;;;;;;6131768;23;20020;-86
2023/03/02 01:47:23;;;;;;;35.67;19.05;;;4.40;99.90;;;;;;6182033;23;20035;-86
2023/03/02 01:50:00;;;;;;;34.38;16.73;;;4.40;99.90;;;;;;6157431;23;20024;-87
2023/03/02 01:52:28;;;;;;;35.63;16.98;;;4.40;99.90;;;;;;6182118;23;20356;-86
2023/03/02 01:54:57;;;;;;;28.77;16.00;;;4.30;99.90;;;;;;6181605;23;20019;-87
2023/03/02 01:57:29;;;;;;;32.80;17.08;;;4.30;99.90;;;;;;6181641;23;20071;-87
2023/03/02 02:00:00;;;;;;;33.40;17.67;;;4.30;99.90;;;;;;6182380;23;20010;-87
2023/03/02 02:02:27;;;;;;;31.52;15.63;;;4.30;99.90;;;;;;6156148;23;20020;-87
2023/03/02 02:04:54;;;;;;;30.58;16.83;;;4.30;99.90;;;;;;6156511;23;20040;-87
2023/03/02 02:07:20;;;;;;;31.23;15.38;;;4.30;99.90;;;;;;6181600;23;20100;-87
2023/03/02 02:09:49;;;;;;;32.03;16.13;;;4.20;99.90;;;;;;6132392;23;20438;-87
2023/03/02 02:12:18;;;;;;;32.17;17.42;;;4.20;99.90;;;;;;6181549;23;20013;-87
2023/03/02 02:14:45;;;;;;;29.30;15.73;;;4.20;99.90;;;;;;6155592;23;20017;-87
2023/03/02 02:17:12;;;;;;;30.73;15.95;;;4.10;99.90;;;;;;6181925;23;20021;-87
2023/03/02 02:19:56;;;;;;;32.47;16.40;;;4.10;99.90;;;;;;6132152;23;20020;-87
2023/03/02 02:22:36;;;;;;;29.02;16.25;;;4.10;99.90;;;;;;6157052;23;20392;-87
2023/03/02 02:25:08;;;;;;;29.23;15.77;;;4.10;99.90;;;;;;6181355;23;20069;-87
2023/03/02 02:27:34;;;;;;;31.15;15.45;;;4.10;99.90;;;;;;6181488;23;20072;-86
2023/03/02 02:30:03;;;;;;;28.58;16.05;;;4.10;99.90;;;;;;6132545;23;20013;-87
2023/03/02 02:32:35;;;;;;;33.08;16.63;;;4.10;99.90;;;;;;6132122;23;20075;-87
2023/03/02 02:35:00;;;;;;;29.67;16.38;;;4.10;99.90;;;;;;6181331;23;20049;-87
2023/03/02 02:37:34;;;;;;;31.45;17.42;;;4.10;99.90;;;;;;6132561;23;20013;-87
2023/03/02 02:40:06;;;;;;;31.92;16.63;;;4.10;99.90;;;;;;6156660;23;20009;-87
2023/03/02 02:42:36;;;;;;;33.85;16.65;;;4.10;99.90;;;;;;6132681;23;20013;-87
2023/03/02 02:45:06;;;;;;;33.40;18.73;;;4.10;99.90;;;;;;6180832;23;20009;-87
2023/03/02 02:47:32;;;;;;;33.70;16.38;;;4.20;99.90;;;;;;6132389;23;20009;-87
2023/03/02 02:49:58;;;;;;;31.80;14.85;;;4.10;99.90;;;;;;6157015;23;20441;-86
2023/03/02 02:52:26;;;;;;;29.33;16.20;;;4.10;99.90;;;;;;6181208;23;20147;-87
2023/03/02 02:54:55;;;;;;;29.17;15.15;;;4.10;99.90;;;;;;6180978;23;20463;-87
2023/03/02 02:57:25;;;;;;;32.70;16.88;;;4.10;99.90;;;;;;6130660;23;20017;-86
2023/03/02 02:59:54;;;;;;;32.20;15.98;;;4.10;99.90;;;;;;6181426;23;20052;-86
2023/03/02 03:02:26;;;;;;;31.98;17.25;;;4.10;99.90;;;;;;6131972;23;20017;-87
2023/03/02 03:05:02;;;;;;;30.58;15.43;;;4.10;99.90;;;;;;6130498;23;20013;-87
2023/03/02 03:07:30;;;;;;;32.63;15.55;;;4.00;99.90;;;;;;6157334;23;20041;-87
2023/03/02 03:10:33;;;;;;;30.02;15.27;;;4.00;99.90;;;;;;6131325;23;20017;-86
2023/03/02 03:13:00;;;;;;;30.55;15.02;;;4.00;99.90;;;;;;6132319;23;20009;-86
2023/03/02 03:15:26;;;;;;;30.25;15.18;;;4.00;99.90;;;;;;6132279;23;20083;-87
2023/03/02 03:17:56;;;;;;;29.02;15.43;;;4.00;99.90;;;;;;6132271;23;20437;-86
2023/03/02 03:20:23;;;;;;;30.08;13.13;;;3.90;99.90;;;;;;6181718;23;20035;-86
2023/03/02 03:22:52;;;;;;;27.85;14.18;;;3.90;99.90;;;;;;6180837;23;20013;-87
2023/03/02 03:25:19;;;;;;;35.38;15.73;;;3.90;99.90;;;;;;6131648;23;20361;-87
2023/03/02 03:27:45;;;;;;;31.27;15.85;;;3.80;99.90;;;;;;6131163;23;20009;-86
2023/03/02 03:30:12;;;;;;;30.20;15.38;;;3.80;99.90;;;;;;6132076;23;20337;-86
2023/03/02 03:32:38;;;;;;;32.75;15.32;;;3.80;99.90;;;;;;6156361;23;20009;-87
2023/03/02 03:35:07;;;;;;;29.45;15.30;;;3.80;99.90;;;;;;6130708;23;20045;-87
2023/03/02 03:37:34;;;;;;;29.65;14.80;;;3.80;99.90;;;;;;6156021;23;20088;-87
2023/03/02 03:39:59;;;;;;;30.67;14.70;;;3.80;99.90;;;;;;6182766;23;20013;-86
2023/03/02 03:42:25;;;;;;;27.90;14.25;;;3.80;99.90;;;;;;6159041;23;20020;-87
2023/03/02 03:44:51;;;;;;;27.85;15.00;;;3.70;99.90;;;;;;6133264;23;20012;-87
2023/03/02 03:47:16;;;;;;;29.10;13.63;;;3.70;99.90;;;;;;6134233;23;20445;-87
2023/03/02 03:49:42;;;;;;;31.83;15.30;;;3.70;99.90;;;;;;6159141;23;20456;-87
2023/03/02 03:52:08;;;;;;;29.20;14.50;;;3.70;99.90;;;;;;6133282;23;20044;-87
2023/03/02 03:54:33;;;;;;;33.25;15.80;;;3.70;99.90;;;;;;6158791;23;20013;-87
2023/03/02 03:56:59;;;;;;;30.17;15.45;;;3.70;99.90;;;;;;6133641;23;20453;-87
2023/03/02 03:59:27;;;;;;;30.55;15.13;;;3.70;99.90;;;;;;6133680;23;20059;-86
2023/03/02 04:01:58;;;;;;;30.58;15.00;;;3.70;99.90;;;;;;6134133;23;20009;-86
2023/03/02 04:04:31;;;;;;;31.27;16.20;;;3.70;99.90;;;;;;6132010;23;20503;-86
2023/03/02 04:06:57;;;;;;;27.17;13.50;;;3.70;99.90;;;;;;6133646;23;20009;-87
2023/03/02 04:09:24;;;;;;;33.95;15.48;;;3.70;99.90;;;;;;6133734;23;20017;-87
2023/03/02 04:11:53;;;;;;;32.17;15.93;;;3.70;99.90;;;;;;6158414;23;20326;-87
2023/03/02 04:14:19;;;;;;;32.17;15.48;;;3.70;99.90;;;;;;6133243;23;20013;-86
2023/03/02 04:16:45;;;;;;;30.35;15.45;;;3.70;99.90;;;;;;6181618;23;20017;-87
2023/03/02 04:19:12;;;;;;;28.15;12.88;;;3.60;99.90;;;;;;6182875;23;20017;-86
2023/03/02 04:21:41;;;;;;;29.38;13.40;;;3.60;99.90;;;;;;6182914;23;20341;-87
2023/03/02 04:24:08;;;;;;;32.85;14.88;;;3.60;99.90;;;;;;6182113;23;20063;-87
2023/03/02 04:26:36;;;;;;;34.00;16.48;;;3.60;99.90;;;;;;6183104;23;20420;-87
2023/03/02 04:29:02;;;;;;;29.27;14.43;;;3.60;99.90;;;;;;6132761;23;20016;-87
2023/03/02 04:31:30;;;;;;;32.47;15.43;;;3.60;99.90;;;;;;6183573;23;20055;-86
2023/03/02 04:33:55;;;;;;;27.00;13.25;;;3.60;99.90;;;;;;6133068;23;20392;-87
2023/03/02 04:36:21;;;;;;;31.67;14.80;;;3.60;99.90;;;;;;6132849;23;20469;-87
2023/03/02 04:38:47;;;;;;;32.88;15.30;;;3.50;99.90;;;;;;6158372;23;20006;-87
2023/03/02 04:41:13;;;;;;;33.80;15.98;;;3.50;99.90;;;;;;6182741;23;20091;-87
2023/03/02 04:43:38;;;;;;;34.22;16.10;;;3.50;99.90;;;;;;6133082;23;20059;-87
2023/03/02 04:46:04;;;;;;;30.00;14.05;;;3.60;99.90;;;;;;6157799;23;20009;-86
2023/03/02 04:48:30;;;;;;;31.65;15.27;;;3.50;99.90;;;;;;6157714;23;20083;-87
2023/03/02 04:50:55;;;;;;;31.77;14.90;;;3.50;99.90;;;;;;6158128;23;20017;-87
2023/03/02 04:53:21;;;;;;;33.55;15.50;;;3.50;99.90;;;;;;6132860;23;20012;-87
2023/03/02 04:55:47;;;;;;;31.50;15.38;;;3.50;99.90;;;;;;6133609;23;20009;-87
2023/03/02 04:58:13;;;;;;;36.28;16.60;;;3.50;99.90;;;;;;6133144;23;20518;-87
2023/03/02 05:00:39;;;;;;;39.08;18.05;;;3.50;99.90;;;;;;6132799;23;20005;-87
2023/03/02 05:03:04;;;;;;;42.45;15.63;;;3.50;99.90;;;;;;6132474;23;20005;-87
2023/03/02 05:05:31;;;;;;;40.03;16.50;;;3.50;99.90;;;;;;6133083;23;20009;-87
2023/03/02 05:08:00;;;;;;;40.08;17.75;;;3.50;99.90;;;;;;6157273;23;20017;-87
2023/03/02 05:10:26;;;;;;;37.88;15.63;;;3.40;99.90;;;;;;6132867;23;20400;-87
2023/03/02 05:13:03;;;;;;;38.72;17.75;;;3.40;99.90;;;;;;6132168;23;20348;-87
2023/03/02 05:15:39;;;;;;;34.83;15.40;;;3.40;99.90;;;;;;6158446;23;20009;-87
2023/03/02 05:18:07;;;;;;;36.83;17.17;;;3.40;99.90;;;;;;6132704;23;20016;-86
2023/03/02 05:20:33;;;;;;;34.25;15.15;;;3.30;99.90;;;;;;6132814;23;20036;-87
2023/03/02 05:23:01;;;;;;;36.80;16.98;;;3.30;99.90;;;;;;6132601;23;20060;-87
2023/03/02 05:25:30;;;;;;;35.67;17.25;;;3.30;99.90;;;;;;6157440;23;20389;-87
2023/03/02 05:27:56;;;;;;;34.75;15.70;;;3.30;99.90;;;;;;6182593;23;20009;-86
2023/03/02 05:30:22;;;;;;;33.60;16.20;;;3.30;99.90;;;;;;6132923;23;20464;-87
2023/03/02 05:32:48;;;;;;;38.65;17.95;;;3.30;99.90;;;;;;6132610;23;20088;-87
2023/03/02 05:35:14;;;;;;;39.10;17.27;;;3.30;99.90;;;;;;6182355;23;20020;-87
2023/03/02 05:37:41;;;;;;;38.25;17.60;;;3.30;99.90;;;;;;6131982;23;20009;-87
2023/03/02 05:40:08;;;;;;;35.53;16.73;;;3.30;99.90;;;;;;6157303;23;20063;-87
2023/03/02 05:42:34;;;;;;;38.08;15.75;;;3.30;99.90;;;;;;6196883;23;20013;-87
2023/03/02 05:45:03;;;;;;;40.10;17.15;;;3.20;99.90;;;;;;6183541;23;20044;-86
2023/03/02 05:47:28;;;;;;;37.65;17.45;;;3.20;99.90;;;;;;6160968;23;20017;-86
2023/03/02 05:49:54;;;;;;;42.97;18.25;;;3.20;99.90;;;;;;6160433;23;20005;-86
2023/03/02 05:52:20;;;;;;;40.95;17.60;;;3.20;99.90;;;;;;6141333;23;20017;-87
2023/03/02 05:54:45;;;;;;;35.30;17.02;;;3.20;99.90;;;;;;6133132;23;20048;-86
2023/03/02 05:57:11;;;;;;;39.88;17.23;;;3.20;99.90;;;;;;6157441;23;20016;-86
2023/03/02 05:59:37;;;;;;;40.78;17.60;;;3.20;99.90;;;;;;6154923;23;20452;-87
2023/03/02 06:02:03;;;;;;;42.20;17.73;;;3.10;99.90;;;;;;6130334;23;20044;-86
2023/03/02 06:04:28;;;;;;;40.65;19.15;;;3.10;99.90;;;;;;6131270;23;20016;-85
2023/03/02 06:06:54;;;;;;;48.25;18.08;;;3.10;99.90;;;;;;6130886;23;20100;-87
2023/03/02 06:09:21;;;;;;;37.15;15.50;;;3.10;99.90;;;;;;6155688;23;20460;-87
2023/03/02 06:11:47;;;;;;;40.55;17.10;;;3.10;99.90;;;;;;6130670;23;20076;-86
2023/03/02 06:14:12;;;;;;;45.30;18.02;;;3.00;99.90;;;;;;6130972;23;20478;-86
2023/03/02 06:16:38;;;;;;;47.03;17.50;;;3.00;99.90;;;;;;6155957;23;20009;-86
2023/03/02 06:19:04;;;;;;;45.53;18.10;;;3.00;99.90;;;;;;6131350;23;20037;-86
2023/03/02 06:21:29;;;;;;;37.70;17.42;;;3.00;99.90;;;;;;6131679;23;20510;-87
2023/03/02 06:23:55;;;;;;;41.38;19.80;;;3.00;99.90;;;;;;6130377;23;20009;-87
2023/03/02 06:26:21;;;;;;;42.33;18.15;;;3.00;99.90;;;;;;6130048;23;20012;-87
2023/03/02 06:28:46;;;;;;;43.22;18.55;;;3.00;99.90;;;;;;6131963;23;20389;-87
2023/03/02 06:31:12;;;;;;;37.15;17.40;;;3.00;99.90;;;;;;6131630;23;20031;-87
2023/03/02 06:33:37;;;;;;;44.70;19.98;;;3.00;99.90;;;;;;6131321;23;20412;-87
2023/03/02 06:36:03;;;;;;;47.15;19.38;;;3.00;99.90;;;;;;6156463;23;20013;-86
2023/03/02 06:38:29;;;;;;;40.30;18.75;;;3.00;99.90;;;;;;6131096;23;20352;-87
2023/03/02 06:40:54;;;;;;;42.72;18.08;;;3.00;99.90;;;;;;6132343;23;20445;-87
2023/03/02 06:43:20;;;;;;;37.33;16.65;;;3.00;99.90;;;;;;6156284;23;20013;-87
2023/03/02 06:45:46;;;;;;;38.35;16.50;;;3.00;99.90;;;;;;6156203;23;20493;-87
2023/03/02 06:48:11;;;;;;;37.67;16.77;;;3.00;99.90;;;;;;6130946;23;20012;-87
2023/03/02 06:50:37;;;;;;;37.72;17.00;;;3.00;99.90;;;;;;6155751;23;20017;-87
2023/03/02 06:53:03;;;;;;;34.83;16.60;;;2.90;99.90;;;;;;6131404;23;20017;-87
2023/03/02 06:55:28;;;;;;;33.05;16.50;;;3.00;99.90;;;;;;6155828;23;20020;-87
2023/03/02 06:57:54;;;;;;;35.42;15.93;;;3.00;99.90;;;;;;6156019;23;20484;-87
2023/03/02 07:00:27;;;;;;;37.38;16.25;;;2.90;99.90;;;;;;6156557;23;20088;-88
2023/03/02 07:02:54;;;;;;;39.08;15.75;;;2.90;99.90;;;;;;6131361;23;20041;-87
2023/03/02 07:05:21;;;;;;;35.10;14.90;;;2.90;99.90;;;;;;6181310;23;20013;-87
2023/03/02 07:07:46;;;;;;;36.03;15.32;;;2.90;99.90;;;;;;6156046;23;20081;-86
2023/03/02 07:10:12;;;;;;;35.50;15.60;;;2.90;99.90;;;;;;6153811;23;20040;-87
2023/03/02 07:12:40;;;;;;;34.95;15.48;;;2.90;99.90;;;;;;6130330;23;20067;-87
2023/03/02 07:15:10;;;;;;;37.13;17.55;;;2.90;99.90;;;;;;6182909;23;20488;-87
2023/03/02 07:17:37;;;;;;;34.88;16.30;;;2.90;99.90;;;;;;6158394;23;20022;-87
2023/03/02 07:20:05;;;;;;;33.72;15.57;;;2.90;99.90;;;;;;6179991;23;20005;-87
2023/03/02 07:22:31;;;;;;;39.40;15.60;;;2.90;99.90;;;;;;6132499;23;20073;-87
2023/03/02 07:24:56;;;;;;;36.95;17.52;;;2.90;99.90;;;;;;6132356;23;20009;-87
2023/03/02 07:27:22;;;;;;;33.80;15.63;;;3.00;99.90;;;;;;6157578;23;20341;-87
2023/03/02 07:29:48;;;;;;;41.00;17.13;;;3.00;99.90;;;;;;6133846;23;20017;-87
2023/03/02 07:32:13;;;;;;;34.38;16.02;;;3.00;99.90;;;;;;6133841;23;20013;-87
2023/03/02 07:34:39;;;;;;;34.38;16.73;;;3.00;99.90;;;;;;6158225;23;20105;-87
2023/03/02 07:37:05;;;;;;;30.25;15.68;;;3.10;99.90;;;;;;6133049;23;20013;-87
2023/03/02 07:39:31;;;;;;;31.80;14.95;;;3.10;99.90;;;;;;6131668;23;20028;-87
2023/03/02 07:41:58;;;;;;;31.05;14.73;;;3.10;99.90;;;;;;6180934;23;20005;-87
2023/03/02 07:44:24;;;;;;;34.58;16.23;;;3.10;99.90;;;;;;6155556;23;20020;-87
2023/03/02 07:46:50;;;;;;;33.22;16.35;;;3.10;99.90;;;;;;6180728;23;20099;-87
2023/03/02 07:49:16;;;;;;;29.67;15.73;;;3.20;99.90;;;;;;6131900;23;20063;-87
2023/03/02 07:51:41;;;;;;;30.35;14.20;;;3.10;99.90;;;;;;6154631;23;20051;-87
2023/03/02 07:54:07;;;;;;;34.38;16.38;;;3.20;99.90;;;;;;6155840;23;20641;-88
2023/03/02 07:56:33;;;;;;;31.90;15.90;;;3.20;99.90;;;;;;6130778;23;20017;-88
2023/03/02 07:58:59;;;;;;;34.38;14.98;;;3.20;99.90;;;;;;6131831;23;20345;-88
2023/03/02 08:01:24;;;;;;;32.17;14.85;;;3.30;99.90;;;;;;6131932;23;20016;-88
2023/03/02 08:03:50;;;;;;;40.15;15.02;;;3.30;99.90;;;;;;6131050;23;20463;-87
2023/03/02 08:06:16;;;;;;;33.28;16.92;;;3.30;99.90;;;;;;6133462;23;20011;-88
2023/03/02 08:08:41;;;;;;;32.03;16.73;;;3.30;99.90;;;;;;6131862;23;20021;-88
2023/03/02 08:11:10;;;;;;;30.38;15.93;;;3.30;99.90;;;;;;6132013;23;20016;-87
2023/03/02 08:13:36;;;;;;;32.88;15.55;;;3.40;99.90;;;;;;6157148;23;20097;-88
2023/03/02 08:16:04;;;;;;;32.85;16.60;;;3.40;99.90;;;;;;6131563;23;20040;-88
2023/03/02 08:18:30;;;;;;;33.60;15.65;;;3.40;99.90;;;;;;6157785;23;20013;-87
2023/03/02 08:20:56;;;;;;;33.92;15.77;;;3.40;99.90;;;;;;6181062;23;20009;-88
2023/03/02 08:23:23;;;;;;;29.20;14.52;;;3.40;99.90;;;;;;6156059;23;20103;-88
2023/03/02 08:25:48;;;;;;;30.30;14.23;;;3.40;99.90;;;;;;6181369;23;20036;-87
2023/03/02 08:28:14;;;;;;;34.55;15.55;;;3.40;99.90;;;;;;6156223;23;20528;-88
2023/03/02 08:30:40;;;;;;;31.33;16.15;;;3.50;99.90;;;;;;6156934;23;20017;-88
2023/03/02 08:33:05;;;;;;;33.35;15.73;;;3.50;99.90;;;;;;6131703;23;20021;-87
2023/03/02 08:35:31;;;;;;;29.85;15.05;;;3.50;99.90;;;;;;6132674;23;20051;-88
2023/03/02 08:37:58;;;;;;;28.85;13.80;;;3.50;99.90;;;;;;6131425;23;20013;-87
2023/03/02 08:40:25;;;;;;;30.40;14.70;;;3.50;99.90;;;;;;6132167;23;20055;-88
2023/03/02 08:42:56;;;;;;;26.55;13.02;;;3.50;99.90;;;;;;6157155;23;20013;-87
2023/03/02 08:45:24;;;;;;;26.67;13.20;;;3.50;99.90;;;;;;6157476;23;20017;-87
2023/03/02 08:47:53;;;;;;;25.50;14.27;;;3.60;99.90;;;;;;6132085;23;20096;-87
2023/03/02 08:50:19;;;;;;;25.67;13.80;;;3.60;99.90;;;;;;6155997;23;20385;-88
2023/03/02 08:52:45;;;;;;;26.00;13.35;;;3.70;99.90;;;;;;6156861;23;20330;-88
2023/03/02 08:55:10;;;;;;;25.70;14.20;;;3.70;99.90;;;;;;6133482;23;20449;-87
2023/03/02 08:57:36;;;;;;;25.67;13.32;;;3.70;99.90;;;;;;6131919;23;20013;-88
2023/03/02 09:00:07;;;;;;;29.13;14.07;;;3.80;99.90;;;;;;6157563;23;20013;-88
2023/03/02 09:02:33;;;;;;;28.33;14.88;;;3.80;99.90;;;;;;6132871;23;20013;-88
2023/03/02 09:04:58;;;;;;;28.02;14.05;;;3.80;99.90;;;;;;6132527;23;20047;-88
2023/03/02 09:07:24;;;;;;;29.67;14.45;;;3.90;99.90;;;;;;6132710;23;20452;-87
2023/03/02 09:09:49;;;;;;;28.80;13.50;;;3.90;99.90;;;;;;6156780;23;20040;-87
2023/03/02 09:12:15;;;;;;;27.95;14.50;;;3.90;99.90;;;;;;6132199;23;20021;-87
2023/03/02 09:14:41;;;;;;;30.48;15.07;;;3.90;99.90;;;;;;6156697;23;20486;-88
2023/03/02 09:17:06;;;;;;;27.60;13.73;;;3.90;99.90;;;;;;6132892;23;20063;-88
2023/03/02 09:19:40;;;;;;;25.60;13.30;;;3.90;99.90;;;;;;6132228;23;20091;-87
2023/03/02 09:22:07;;;;;;;26.83;13.65;;;4.00;99.90;;;;;;6156891;23;20020;-87
2023/03/02 09:24:33;;;;;;;28.13;14.85;;;4.00;99.90;;;;;;6157352;23;20013;-87
2023/03/02 09:26:58;;;;;;;23.73;13.80;;;4.00;99.90;;;;;;6156272;23;20352;-87
2023/03/02 09:29:24;;;;;;;28.00;14.35;;;4.00;99.90;;;;;;6156951;23;20087;-88
2023/03/02 09:31:50;;;;;;;26.98;13.18;;;4.00;99.90;;;;;;6156453;23;20017;-87
2023/03/02 09:34:15;;;;;;;28.70;15.00;;;4.10;99.90;;;;;;6131691;23;20092;-87
2023/03/02 09:36:41;;;;;;;27.70;14.38;;;4.20;99.90;;;;;;6156010;23;20016;-87
2023/03/02 09:39:11;;;;;;;24.75;12.95;;;4.20;99.90;;;;;;6130530;23;20012;-87
2023/03/02 09:41:58;;;;;;;24.85;13.10;;;4.20;99.90;;;;;;6130556;23;20020;-87
2023/03/02 09:44:54;;;;;;;25.08;13.68;;;4.30;99.90;;;;;;6128050;23;20013;-86
2023/03/02 09:47:32;;;;;;;24.48;13.38;;;4.40;99.90;;;;;;6129260;23;20024;-87
2023/03/02 09:50:32;;;;;;;24.73;12.88;;;4.40;99.90;;;;;;6155020;23;20017;-87
2023/03/02 09:53:22;;;;;;;26.92;13.80;;;4.50;99.90;;;;;;6132037;23;20017;-87
2023/03/02 09:55:58;;;;;;;26.83;13.80;;;4.50;99.90;;;;;;6132835;23;20025;-87
2023/03/02 09:58:30;;;;;;;27.23;13.27;;;4.60;99.90;;;;;;6157423;23;20515;-87
2023/03/02 10:00:59;;;;;;;25.50;13.00;;;4.60;99.90;;;;;;6157495;23;20009;-88
2023/03/02 10:03:40;;;;;;;26.67;13.93;;;4.70;99.90;;;;;;6132599;23;20005;-87
2023/03/02 10:06:08;;;;;;;25.15;12.73;;;4.80;99.90;;;;;;6182712;23;20576;-87
2023/03/02 10:08:36;;;;;;;23.67;12.45;;;4.80;99.90;;;;;;6193514;23;20001;-88
2023/03/02 10:11:21;;;;;;;23.38;13.18;;;4.80;99.90;;;;;;6161024;23;20020;-88
2023/03/02 10:13:53;;;;;;;22.80;12.63;;;4.90;99.90;;;;;;6161517;23;20056;-88
2023/03/02 10:16:38;;;;;;;25.20;13.07;;;4.90;99.90;;;;;;6210845;23;20019;-88
2023/03/02 10:19:10;;;;;;;22.75;12.05;;;4.90;99.90;;;;;;6161343;23;20001;-87
2023/03/02 10:21:42;;;;;;;25.90;14.02;;;4.90;99.90;;;;;;6205183;23;20015;-88
2023/03/02 10:24:14;;;;;;;24.63;12.60;;;5.00;99.90;;;;;;6201517;23;20020;-88
2023/03/02 10:26:44;;;;;;;22.42;12.48;;;5.00;99.90;;;;;;6135269;23;20058;-87
2023/03/02 10:29:21;;;;;;;23.25;12.57;;;5.00;99.90;;;;;;6133592;23;20028;-88
2023/03/02 10:31:54;;;;;;;22.35;12.75;;;5.10;99.90;;;;;;6133377;23;20017;-88
2023/03/02 10:34:23;;;;;;;21.85;12.32;;;5.10;99.90;;;;;;6156647;23;20016;-88
2023/03/02 10:36:48;;;;;;;23.95;12.27;;;5.10;99.90;;;;;;6181572;23;20009;-88
2023/03/02 10:39:16;;;;;;;24.08;12.10;;;5.20;99.90;;;;;;6131204;23;20471;-88
2023/03/02 10:41:52;;;;;;;23.67;13.00;;;5.30;99.90;;;;;;6180177;23;20013;-88
2023/03/02 10:44:44;;;;;;;25.02;13.65;;;5.60;99.90;;;;;;6156129;23;20020;-88
2023/03/02 10:47:24;;;;;;;24.15;13.07;;;5.80;99.90;;;;;;6140877;23;20013;-88
2023/03/02 10:49:51;;;;;;;24.33;12.63;;;5.80;99.90;;;;;;6133491;23;20013;-88
2023/03/02 10:52:20;;;;;;;22.83;11.85;;;5.80;99.90;;;;;;6156047;23;20024;-88
2023/03/02 10:54:46;;;;;;;22.52;12.02;;;5.90;99.90;;;;;;6131845;23;20028;-87
2023/03/02 10:57:27;;;;;;;29.17;13.95;;;5.90;99.90;;;;;;6131905;23;20012;-88
2023/03/02 10:59:59;;;;;;;22.85;12.27;;;5.90;99.90;;;;;;6132821;23;20009;-88
2023/03/02 11:02:27;;;;;;;21.90;12.48;;;6.00;99.90;;;;;;6182555;23;20059;-87
2023/03/02 11:05:32;;;;;;;23.55;11.65;;;6.20;99.90;;;;;;6156783;23;20088;-87
2023/03/02 11:07:57;;;;;;;23.52;11.75;;;6.20;99.90;;;;;;6156893;23;20352;-87
2023/03/02 11:10:33;;;;;;;21.67;11.38;;;6.30;99.90;;;;;;6132994;23;20017;-87
2023/03/02 11:13:00;;;;;;;23.80;13.05;;;6.30;99.90;;;;;;6155244;23;20017;-87
2023/03/02 11:15:30;;;;;;;22.85;11.88;;;6.30;99.90;;;;;;6128069;23;20522;-89
2023/03/02 11:18:02;;;;;;;25.80;12.88;;;6.20;99.90;;;;;;6128308;23;20024;-88
2023/03/02 11:20:39;;;;;;;21.58;12.05;;;6.20;99.90;;;;;;6152841;23;20071;-89
2023/03/02 11:23:33;;;;;;;22.67;13.07;;;6.20;99.90;;;;;;6128161;23;20044;-89
2023/03/02 11:26:05;;;;;;;21.88;12.82;;;6.20;99.90;;;;;;6177828;23;20526;-88
2023/03/02 11:28:47;;;;;;;22.85;12.15;;;6.30;99.90;;;;;;6178220;23;20218;-88
2023/03/02 11:31:25;;;;;;;22.60;12.38;;;6.40;99.90;;;;;;6178098;23;20460;-88
2023/03/02 11:33:58;;;;;;;23.17;13.32;;;6.40;99.90;;;;;;6127520;23;20021;-88
2023/03/02 11:36:38;;;;;;;21.52;12.05;;;6.50;99.90;;;;;;6152600;23;20021;-87
2023/03/02 11:39:11;;;;;;;21.52;11.15;;;6.60;99.90;;;;;;6128050;23;20021;-88
2023/03/02 11:41:37;;;;;;;25.10;14.50;;;6.70;99.90;;;;;;6129911;23;20021;-89
2023/03/02 11:44:18;;;;;;;24.77;13.45;;;6.80;99.90;;;;;;6152589;23;20045;-89
2023/03/02 11:46:47;;;;;;;26.23;15.25;;;7.00;99.90;;;;;;6177594;23;20021;-89
2023/03/02 11:49:42;;;;;;;25.17;14.48;;;7.10;99.90;;;;;;6129297;23;20079;-90
2023/03/02 11:52:20;;;;;;;25.48;13.77;;;7.20;99.90;;;;;;6139880;23;20013;-90
2023/03/02 11:54:56;;;;;;;26.42;15.05;;;7.20;99.90;;;;;;6156450;23;20013;-91
2023/03/02 11:57:28;;;;;;;24.45;14.02;;;7.20;99.90;;;;;;6132193;23;20013;-90
2023/03/02 11:59:55;;;;;;;22.88;12.85;;;7.20;99.90;;;;;;6182988;23;20064;-89
2023/03/02 12:02:21;;;;;;;27.20;14.48;;;7.30;99.90;;;;;;6181241;23;20013;-90
2023/03/02 12:04:47;;;;;;;25.48;14.32;;;7.40;99.90;;;;;;6176222;23;20088;-89
2023/03/02 12:07:23;;;;;;;27.80;14.13;;;7.50;99.90;;;;;;6129622;23;20016;-90
2023/03/02 12:10:23;;;;;;;25.67;13.88;;;7.60;99.90;;;;;;6180331;23;20016;-88
2023/03/02 12:13:41;;;;;;;25.70;14.10;;;7.90;99.90;;;;;;6130464;23;20021;-89
2023/03/02 12:16:22;;;;;;;23.10;12.30;;;8.00;99.90;;;;;;6045535;23;20627;-90
2023/03/02 12:18:49;;;;;;;25.25;13.98;;;8.00;99.90;;;;;;6179242;23;20496;-89
2023/03/02 12:21:21;;;;;;;22.55;13.60;;;8.10;99.90;;;;;;6179363;23;20016;-91
2023/03/02 12:23:49;;;;;;;22.50;13.67;;;8.20;99.90;;;;;;6129877;23;20420;-89
2023/03/02 12:26:18;;;;;;;23.35;12.75;;;8.30;99.90;;;;;;6129499;23;20017;-90
2023/03/02 12:29:03;;;;;;;19.75;12.27;;;8.50;99.90;;;;;;6130494;23;20369;-89
2023/03/02 12:31:45;;;;;;;24.25;13.32;;;8.50;99.90;;;;;;6130805;23;20013;-89
2023/03/02 12:34:23;;;;;;;22.73;12.63;;;8.60;99.90;;;;;;6157457;23;20013;-89
2023/03/02 12:36:51;;;;;;;22.70;13.05;;;8.70;99.00;;;;;;6134060;23;20019;-90
2023/03/02 12:39:34;;;;;;;25.10;13.07;;;8.70;99.00;;;;;;6133415;23;20056;-89
2023/03/02 12:42:22;;;;;;;25.77;14.07;;;8.90;99.40;;;;;;6133166;23;20009;-90
2023/03/02 12:45:12;;;;;;;22.20;13.00;;;9.20;99.90;;;;;;6133388;23;20009;-90
2023/03/02 12:47:42;;;;;;;23.70;14.65;;;9.50;98.60;;;;;;6157517;23;20009;-91